createdAt,value
2018-08-04T00:00:00.458Z,8.4
2018-08-04T00:05:00.400Z,8.5
2018-08-04T00:10:00.531Z,8.8
2018-08-04T00:15:00.402Z,9.3
2018-08-04T00:20:00.499Z,9.4
2018-08-04T00:25:00.406Z,9.8
2018-08-04T00:30:00.411Z,10.0
2018-08-04T00:40:00.480Z,9.8
2018-08-04T00:45:00.449Z,9.9
2018-08-04T00:50:00.524Z,10.5
2018-08-04T00:55:00.507Z,10.8
2018-08-04T01:00:00.526Z,10.8
2018-08-04T01:05:00.463Z,11.1
2018-08-04T01:10:00.456Z,11.2
2018-08-04T01:15:00.472Z,10.6
2018-08-04T01:20:00.542Z,10.5
2018-08-04T01:25:00.466Z,10.2
2018-08-04T01:30:00.528Z,10.4
2018-08-04T01:35:00.462Z,10.2
2018-08-04T01:45:00.433Z,10.5
2018-08-04T01:50:00.568Z,11.0
2018-08-04T02:00:00.505Z,11.1
2018-08-04T02:05:00.441Z,11.6
2018-08-04T02:10:00.508Z,12.1
2018-08-04T02:15:00.442Z,12.1
2018-08-04T02:20:00.512Z,12.9
2018-08-04T02:25:00.445Z,13.6
2018-08-04T02:30:00.467Z,13.1
2018-08-04T02:35:00.446Z,12.8
2018-08-04T02:40:00.512Z,13.7
2018-08-04T02:45:00.452Z,12.9
2018-08-04T02:50:00.456Z,12.8
2018-08-04T02:55:00.459Z,13.5
2018-08-04T03:00:00.589Z,14.0
2018-08-04T03:05:00.462Z,13.5
2018-08-04T03:10:00.550Z,13.4
2018-08-04T03:15:00.486Z,13.8
2018-08-04T03:20:00.628Z,14.0
2018-08-04T03:25:00.494Z,13.4
2018-08-04T03:30:00.622Z,13.2
2018-08-04T03:35:00.493Z,13.1
2018-08-04T03:40:00.568Z,12.2
2018-08-04T03:45:00.495Z,11.6
2018-08-04T03:55:00.466Z,11.1
2018-08-04T04:00:00.601Z,11.8
2018-08-04T04:05:00.477Z,11.9
2018-08-04T04:10:00.601Z,12.3
2018-08-04T04:15:00.475Z,12.6
2018-08-04T04:20:00.547Z,13.5
2018-08-04T04:25:00.478Z,13.2
2018-08-04T04:30:00.479Z,13.7
2018-08-04T04:35:00.479Z,14.2
2018-08-04T04:40:00.611Z,15.1
2018-08-04T04:45:00.487Z,15.1
2018-08-04T04:50:00.554Z,15.4
2018-08-04T04:55:00.489Z,16.1
2018-08-04T05:00:00.559Z,16.5
2018-08-04T05:05:00.486Z,17.2
2018-08-04T05:10:00.625Z,18.3
2018-08-04T05:15:00.504Z,19.3
2018-08-04T05:20:00.564Z,18.5
2018-08-04T05:25:00.496Z,18.7
2018-08-04T05:30:00.562Z,18.6
2018-08-04T05:35:00.531Z,17.8
2018-08-04T05:40:00.620Z,17.6
2018-08-04T05:45:00.538Z,17.8
2018-08-04T05:50:00.635Z,17.3
2018-08-04T05:55:00.537Z,17.2
2018-08-04T06:00:00.670Z,18.1
2018-08-04T06:05:00.530Z,18.7
2018-08-04T06:10:00.536Z,19.3
2018-08-04T06:15:00.540Z,19.6
2018-08-04T06:20:00.611Z,18.7
2018-08-04T06:25:00.545Z,17.2
2018-08-04T06:30:00.550Z,16.0
2018-08-04T06:35:00.541Z,15.3
2018-08-04T06:40:00.563Z,14.6
2018-08-04T06:45:00.553Z,13.6
2018-08-04T06:50:00.608Z,13.2
2018-08-04T06:55:00.552Z,12.3
2018-08-04T07:00:00.552Z,11.4
2018-08-04T07:05:00.554Z,10.0
2018-08-04T07:10:00.684Z,9.4
2018-08-04T07:15:00.561Z,8.2
2018-08-04T07:20:00.682Z,7.1
2018-08-04T07:25:00.532Z,6.4
2018-08-04T07:30:00.624Z,5.9
2018-08-04T07:35:00.560Z,5.1
2018-08-04T07:40:00.704Z,4.7
2018-08-04T07:45:00.541Z,5.0
2018-08-04T07:55:00.553Z,4.9
2018-08-04T08:00:00.680Z,5.3
2018-08-04T08:05:00.575Z,5.9
2018-08-04T08:10:00.599Z,5.4
2018-08-04T08:15:00.586Z,5.0
2018-08-04T08:20:00.721Z,5.1
2018-08-04T08:25:00.590Z,5.2
2018-08-04T08:30:00.652Z,4.8
2018-08-04T08:35:00.593Z,4.9
2018-08-04T08:40:00.743Z,8.4
2018-08-04T08:45:00.556Z,9.8
2018-08-04T08:50:00.637Z,9.9
2018-08-04T08:55:00.588Z,10.0
2018-08-04T09:00:00.654Z,9.9
2018-08-04T09:05:00.589Z,6.5
2018-08-04T09:10:00.669Z,4.9
2018-08-04T09:15:00.563Z,4.5
2018-08-04T09:20:00.663Z,4.3
2018-08-04T09:25:00.571Z,4.2
2018-08-04T09:30:00.695Z,4.0
2018-08-04T09:35:00.576Z,3.7
2018-08-04T09:40:00.639Z,4.2
2018-08-04T09:45:00.579Z,4.4
2018-08-04T09:50:00.574Z,4.5
2018-08-04T09:55:00.603Z,4.8
2018-08-04T10:00:00.599Z,4.9
2018-08-04T10:05:00.620Z,4.8
2018-08-04T10:10:00.682Z,4.5
2018-08-04T10:15:00.621Z,4.5
2018-08-04T10:20:00.594Z,4.2
2018-08-04T10:25:00.594Z,4.3
2018-08-04T10:30:00.727Z,3.9
2018-08-04T10:35:00.601Z,4.2
2018-08-04T10:45:00.669Z,4.1
2018-08-04T11:00:00.763Z,3.9
2018-08-04T11:05:00.608Z,4.0
2018-08-04T11:10:00.733Z,4.1
2018-08-04T11:15:00.618Z,3.9
2018-08-04T11:20:00.675Z,3.7
2018-08-04T11:25:00.606Z,3.6
2018-08-04T11:30:00.678Z,3.6
2018-08-04T11:40:00.748Z,3.7
2018-08-04T11:45:00.624Z,3.7
2018-08-04T11:50:00.627Z,3.6
2018-08-04T11:55:00.617Z,3.8
2018-08-04T12:00:00.622Z,3.7
2018-08-04T12:05:00.626Z,4.0
2018-08-04T12:10:00.778Z,4.2
2018-08-04T12:15:00.653Z,4.4
2018-08-04T12:20:00.657Z,4.0
2018-08-04T12:25:00.660Z,3.8
2018-08-04T12:30:00.660Z,3.4
2018-08-04T12:35:00.663Z,3.0
2018-08-04T12:40:00.797Z,2.8
2018-08-04T12:45:00.637Z,3.0
2018-08-04T12:50:00.772Z,2.9
2018-08-04T12:55:00.648Z,3.0
2018-08-04T13:00:00.713Z,3.2
2018-08-04T13:05:00.648Z,3.0
2018-08-04T13:10:00.718Z,2.7
2018-08-04T13:15:00.686Z,2.8
2018-08-04T13:20:00.675Z,2.7
2018-08-04T13:25:00.683Z,2.6
2018-08-04T13:30:00.747Z,2.8
2018-08-04T13:35:00.679Z,2.9
2018-08-04T13:45:00.720Z,2.7
2018-08-04T13:50:00.652Z,3.0
2018-08-04T14:00:00.725Z,3.0
2018-08-04T14:10:00.730Z,3.4
2018-08-04T14:15:00.667Z,3.3
2018-08-04T14:25:00.732Z,3.4
2018-08-04T14:30:00.799Z,3.4
2018-08-04T14:35:00.768Z,3.3
2018-08-04T14:45:00.815Z,3.5
2018-08-04T14:50:00.716Z,3.4
2018-08-04T14:55:00.747Z,3.6
2018-08-04T15:00:00.815Z,3.6
2018-08-04T15:05:00.728Z,3.9
2018-08-04T15:10:00.911Z,4.0
2018-08-04T15:15:00.719Z,4.1
2018-08-04T15:20:00.856Z,3.9
2018-08-04T15:25:00.695Z,4.0
2018-08-04T15:30:00.692Z,3.7
2018-08-04T15:35:00.694Z,3.4
2018-08-04T15:40:00.809Z,3.7
2018-08-04T15:45:00.693Z,3.8
2018-08-04T15:50:00.697Z,3.7
2018-08-04T15:55:00.728Z,3.8
2018-08-04T16:00:00.721Z,4.0
2018-08-04T16:05:00.729Z,3.6
2018-08-04T16:10:00.711Z,3.5
2018-08-04T16:15:00.702Z,3.5
2018-08-04T16:20:00.768Z,3.4
2018-08-04T16:25:00.757Z,3.0
2018-08-04T16:30:05.770Z,3.0
2018-08-04T16:35:00.712Z,2.9
2018-08-04T16:40:00.839Z,2.7
2018-08-04T16:45:00.709Z,2.6
2018-08-04T17:00:00.713Z,2.5
2018-08-04T17:05:00.718Z,2.7
2018-08-04T17:15:00.788Z,2.7
2018-08-04T17:20:00.725Z,2.6
2018-08-04T17:25:00.726Z,2.8
2018-08-04T17:30:00.727Z,2.8
2018-08-04T17:35:00.730Z,2.7
2018-08-04T17:40:00.732Z,2.8
2018-08-04T17:45:00.734Z,2.8
2018-08-04T18:00:00.734Z,3.2
2018-08-04T18:05:00.740Z,3.6
2018-08-04T18:15:00.805Z,3.6
2018-08-04T18:25:00.745Z,3.5
2018-08-04T18:30:00.841Z,3.5
2018-08-04T18:35:00.748Z,3.7
2018-08-04T18:40:00.810Z,3.8
2018-08-04T18:45:00.753Z,4.4
2018-08-04T18:50:00.885Z,5.0
2018-08-04T18:55:00.751Z,5.4
2018-08-04T19:00:00.815Z,6.0
2018-08-04T19:05:00.754Z,7.1
2018-08-04T19:10:00.818Z,7.4
2018-08-04T19:15:00.756Z,7.8
2018-08-04T19:25:00.825Z,7.9
2018-08-04T19:30:00.763Z,7.8
2018-08-04T19:40:00.768Z,7.5
2018-08-04T19:45:00.764Z,7.6
2018-08-04T19:50:00.843Z,7.7
2018-08-04T19:55:00.765Z,8.3
2018-08-04T20:00:00.905Z,8.5
2018-08-04T20:15:00.907Z,8.5
2018-08-04T20:20:00.847Z,8.3
2018-08-04T20:25:00.788Z,8.1
2018-08-04T20:30:00.779Z,8.5
2018-08-04T20:35:00.828Z,8.3
2018-08-04T20:40:00.792Z,8.2
2018-08-04T20:45:00.791Z,8.3
2018-08-04T20:50:00.789Z,9.4
2018-08-04T20:55:00.781Z,9.3
2018-08-04T21:00:00.787Z,9.5
2018-08-04T21:05:00.791Z,10.2
2018-08-04T21:10:00.825Z,10.3
2018-08-04T21:15:00.822Z,9.7
2018-08-04T21:20:00.815Z,9.9
2018-08-04T21:25:00.822Z,9.7
2018-08-04T21:30:00.826Z,9.2
2018-08-04T21:35:00.825Z,9.0
2018-08-04T21:40:00.827Z,8.5
2018-08-04T21:45:00.831Z,8.4
2018-08-04T21:50:00.809Z,8.0
2018-08-04T21:55:00.808Z,7.5
2018-08-04T22:00:00.881Z,7.4
2018-08-04T22:05:00.835Z,7.2
2018-08-04T22:10:00.814Z,6.5
2018-08-04T22:15:00.815Z,6.8
2018-08-04T22:20:00.817Z,6.7
2018-08-04T22:25:00.819Z,6.2
2018-08-04T22:30:00.820Z,5.8
2018-08-04T22:35:00.821Z,5.6
2018-08-04T22:40:00.847Z,5.2
2018-08-04T22:45:00.858Z,5.2
2018-08-04T23:00:01.300Z,4.8
2018-08-04T23:06:01.134Z,5.3
2018-08-04T23:11:01.149Z,5.5
2018-08-04T23:16:06.111Z,5.2
2018-08-04T23:21:01.225Z,5.4
2018-08-04T23:31:01.209Z,5.5
2018-08-04T23:37:01.098Z,5.7
2018-08-04T23:42:01.161Z,6.2
2018-08-04T23:52:01.171Z,6.3
2018-08-04T23:57:01.104Z,6.0
